sensor_id;sensor_type;location;lat;lon;timestamp;temperature;humidity
20744;DHT22;56303;52.160;-0.428;2022-08-21T00:02:22;19.70;99.90
20744;DHT22;56303;52.160;-0.428;2022-08-21T00:04:50;19.60;99.90
20744;DHT22;56303;52.160;-0.428;2022-08-21T00:07:23;19.70;99.90
20744;DHT22;56303;52.160;-0.428;2022-08-21T00:09:51;19.70;99.90
20744;DHT22;56303;52.160;-0.428;2022-08-21T00:12:18;19.80;99.90
20744;DHT22;56303;52.160;-0.428;2022-08-21T00:14:46;20.00;99.90
20744;DHT22;56303;52.160;-0.428;2022-08-21T00:17:13;19.80;99.90
20744;DHT22;56303;52.160;-0.428;2022-08-21T00:19:39;19.70;99.90
20744;DHT22;56303;52.160;-0.428;2022-08-21T00:22:06;19.60;99.90
20744;DHT22;56303;52.160;-0.428;2022-08-21T00:24:34;19.70;99.90
20744;DHT22;56303;52.160;-0.428;2022-08-21T00:27:01;19.60;99.90
20744;DHT22;56303;52.160;-0.428;2022-08-21T00:29:27;19.60;99.90
20744;DHT22;56303;52.160;-0.428;2022-08-21T00:31:54;19.70;99.90
20744;DHT22;56303;52.160;-0.428;2022-08-21T00:34:21;19.80;99.90
20744;DHT22;56303;52.160;-0.428;2022-08-21T00:36:48;19.50;99.90
20744;DHT22;56303;52.160;-0.428;2022-08-21T00:39:15;19.50;99.90
20744;DHT22;56303;52.160;-0.428;2022-08-21T00:41:42;19.40;99.90
20744;DHT22;56303;52.160;-0.428;2022-08-21T00:44:13;19.50;99.90
20744;DHT22;56303;52.160;-0.428;2022-08-21T00:46:41;19.40;99.90
20744;DHT22;56303;52.160;-0.428;2022-08-21T00:49:09;19.50;99.90
20744;DHT22;56303;52.160;-0.428;2022-08-21T00:51:44;19.50;99.90
20744;DHT22;56303;52.160;-0.428;2022-08-21T00:54:13;19.30;99.90
20744;DHT22;56303;52.160;-0.428;2022-08-21T00:56:47;19.30;99.90
20744;DHT22;56303;52.160;-0.428;2022-08-21T00:59:18;19.10;99.90
20744;DHT22;56303;52.160;-0.428;2022-08-21T01:01:46;19.30;99.90
20744;DHT22;56303;52.160;-0.428;2022-08-21T01:04:14;19.00;99.90
20744;DHT22;56303;52.160;-0.428;2022-08-21T01:06:43;19.00;99.90
20744;DHT22;56303;52.160;-0.428;2022-08-21T01:09:11;18.90;99.90
20744;DHT22;56303;52.160;-0.428;2022-08-21T01:11:38;18.80;99.90
20744;DHT22;56303;52.160;-0.428;2022-08-21T01:14:05;18.90;99.90
20744;DHT22;56303;52.160;-0.428;2022-08-21T01:16:33;19.00;99.90
20744;DHT22;56303;52.160;-0.428;2022-08-21T01:18:59;18.80;99.90
20744;DHT22;56303;52.160;-0.428;2022-08-21T01:21:27;18.80;99.90
20744;DHT22;56303;52.160;-0.428;2022-08-21T01:23:56;18.70;99.90
20744;DHT22;56303;52.160;-0.428;2022-08-21T01:26:29;18.70;99.90
20744;DHT22;56303;52.160;-0.428;2022-08-21T01:31:36;18.50;99.90
20744;DHT22;56303;52.160;-0.428;2022-08-21T01:34:04;18.50;99.90
20744;DHT22;56303;52.160;-0.428;2022-08-21T01:36:31;18.40;99.90
20744;DHT22;56303;52.160;-0.428;2022-08-21T01:38:58;18.40;99.90
20744;DHT22;56303;52.160;-0.428;2022-08-21T01:41:24;18.60;99.90
20744;DHT22;56303;52.160;-0.428;2022-08-21T01:43:51;18.60;99.90
20744;DHT22;56303;52.160;-0.428;2022-08-21T01:46:18;18.60;99.90
20744;DHT22;56303;52.160;-0.428;2022-08-21T01:48:45;18.60;99.90
20744;DHT22;56303;52.160;-0.428;2022-08-21T01:51:12;18.50;99.90
20744;DHT22;56303;52.160;-0.428;2022-08-21T01:53:39;18.70;99.90
20744;DHT22;56303;52.160;-0.428;2022-08-21T01:56:10;18.50;99.90
20744;DHT22;56303;52.160;-0.428;2022-08-21T01:58:39;18.40;99.90
20744;DHT22;56303;52.160;-0.428;2022-08-21T02:01:06;18.20;99.90
20744;DHT22;56303;52.160;-0.428;2022-08-21T02:03:33;18.20;99.90
20744;DHT22;56303;52.160;-0.428;2022-08-21T02:06:03;18.00;99.90
20744;DHT22;56303;52.160;-0.428;2022-08-21T02:08:30;18.10;99.90
20744;DHT22;56303;52.160;-0.428;2022-08-21T02:10:57;18.10;99.90
20744;DHT22;56303;52.160;-0.428;2022-08-21T02:13:24;18.10;99.90
20744;DHT22;56303;52.160;-0.428;2022-08-21T02:15:51;18.20;99.90
20744;DHT22;56303;52.160;-0.428;2022-08-21T02:18:18;18.20;99.90
20744;DHT22;56303;52.160;-0.428;2022-08-21T02:20:48;18.20;99.90
20744;DHT22;56303;52.160;-0.428;2022-08-21T02:23:23;18.10;99.90
20744;DHT22;56303;52.160;-0.428;2022-08-21T02:25:54;18.30;99.90
20744;DHT22;56303;52.160;-0.428;2022-08-21T02:28:21;18.20;99.90
20744;DHT22;56303;52.160;-0.428;2022-08-21T02:30:49;18.30;99.90
20744;DHT22;56303;52.160;-0.428;2022-08-21T02:33:16;18.50;99.90
20744;DHT22;56303;52.160;-0.428;2022-08-21T02:35:45;18.50;99.90
20744;DHT22;56303;52.160;-0.428;2022-08-21T02:38:16;18.40;99.90
20744;DHT22;56303;52.160;-0.428;2022-08-21T02:40:45;18.40;99.90
20744;DHT22;56303;52.160;-0.428;2022-08-21T02:43:14;18.40;99.90
20744;DHT22;56303;52.160;-0.428;2022-08-21T02:45:43;18.30;99.90
20744;DHT22;56303;52.160;-0.428;2022-08-21T02:48:15;18.30;99.90
20744;DHT22;56303;52.160;-0.428;2022-08-21T02:50:52;18.20;99.90
20744;DHT22;56303;52.160;-0.428;2022-08-21T02:53:19;18.30;99.90
20744;DHT22;56303;52.160;-0.428;2022-08-21T02:55:48;18.30;99.90
20744;DHT22;56303;52.160;-0.428;2022-08-21T02:58:18;18.40;99.90
20744;DHT22;56303;52.160;-0.428;2022-08-21T03:00:45;18.30;99.90
20744;DHT22;56303;52.160;-0.428;2022-08-21T03:03:12;18.40;99.90
20744;DHT22;56303;52.160;-0.428;2022-08-21T03:05:40;18.30;99.90
20744;DHT22;56303;52.160;-0.428;2022-08-21T03:08:08;18.40;99.90
20744;DHT22;56303;52.160;-0.428;2022-08-21T03:10:42;18.40;99.90
20744;DHT22;56303;52.160;-0.428;2022-08-21T03:13:09;18.20;99.90
20744;DHT22;56303;52.160;-0.428;2022-08-21T03:15:37;18.00;99.90
20744;DHT22;56303;52.160;-0.428;2022-08-21T03:18:04;18.10;99.90
20744;DHT22;56303;52.160;-0.428;2022-08-21T03:20:32;18.10;99.90
20744;DHT22;56303;52.160;-0.428;2022-08-21T03:23:01;18.00;99.90
20744;DHT22;56303;52.160;-0.428;2022-08-21T03:25:38;17.90;99.90
20744;DHT22;56303;52.160;-0.428;2022-08-21T03:28:09;17.90;99.90
20744;DHT22;56303;52.160;-0.428;2022-08-21T03:30:44;17.70;99.90
20744;DHT22;56303;52.160;-0.428;2022-08-21T03:33:12;17.90;99.90
20744;DHT22;56303;52.160;-0.428;2022-08-21T03:35:45;17.80;99.90
20744;DHT22;56303;52.160;-0.428;2022-08-21T03:38:13;17.70;99.90
20744;DHT22;56303;52.160;-0.428;2022-08-21T03:40:41;17.70;99.90
20744;DHT22;56303;52.160;-0.428;2022-08-21T03:43:08;17.80;99.90
20744;DHT22;56303;52.160;-0.428;2022-08-21T03:45:36;17.60;99.90
20744;DHT22;56303;52.160;-0.428;2022-08-21T03:48:05;17.40;99.90
20744;DHT22;56303;52.160;-0.428;2022-08-21T03:50:36;17.40;99.90
20744;DHT22;56303;52.160;-0.428;2022-08-21T03:53:07;17.50;99.90
20744;DHT22;56303;52.160;-0.428;2022-08-21T03:55:47;17.50;99.90
20744;DHT22;56303;52.160;-0.428;2022-08-21T03:58:16;17.40;99.90
20744;DHT22;56303;52.160;-0.428;2022-08-21T04:00:49;17.40;99.90
20744;DHT22;56303;52.160;-0.428;2022-08-21T04:03:16;17.50;99.90
20744;DHT22;56303;52.160;-0.428;2022-08-21T04:05:44;17.50;99.90
20744;DHT22;56303;52.160;-0.428;2022-08-21T04:08:13;17.50;99.90
20744;DHT22;56303;52.160;-0.428;2022-08-21T04:10:41;17.40;99.90
20744;DHT22;56303;52.160;-0.428;2022-08-21T04:13:11;17.30;99.90
20744;DHT22;56303;52.160;-0.428;2022-08-21T04:15:38;17.30;99.90
20744;DHT22;56303;52.160;-0.428;2022-08-21T04:18:05;17.30;99.90
20744;DHT22;56303;52.160;-0.428;2022-08-21T04:20:33;17.30;99.90
20744;DHT22;56303;52.160;-0.428;2022-08-21T04:23:01;17.20;99.90
20744;DHT22;56303;52.160;-0.428;2022-08-21T04:25:28;17.20;99.90
20744;DHT22;56303;52.160;-0.428;2022-08-21T04:27:55;17.10;99.90
20744;DHT22;56303;52.160;-0.428;2022-08-21T04:30:22;17.10;99.90
20744;DHT22;56303;52.160;-0.428;2022-08-21T04:32:55;17.10;99.90
20744;DHT22;56303;52.160;-0.428;2022-08-21T04:35:25;17.10;99.90
20744;DHT22;56303;52.160;-0.428;2022-08-21T04:37:52;17.10;99.90
20744;DHT22;56303;52.160;-0.428;2022-08-21T04:40:20;17.10;99.90
20744;DHT22;56303;52.160;-0.428;2022-08-21T04:42:57;17.10;99.90
20744;DHT22;56303;52.160;-0.428;2022-08-21T04:45:29;17.20;99.90
20744;DHT22;56303;52.160;-0.428;2022-08-21T04:47:58;17.30;99.90
20744;DHT22;56303;52.160;-0.428;2022-08-21T04:50:45;17.20;99.90
20744;DHT22;56303;52.160;-0.428;2022-08-21T04:53:20;17.10;99.90
20744;DHT22;56303;52.160;-0.428;2022-08-21T04:55:49;17.10;99.90
20744;DHT22;56303;52.160;-0.428;2022-08-21T04:58:20;17.10;99.90
20744;DHT22;56303;52.160;-0.428;2022-08-21T05:00:48;16.90;99.90
20744;DHT22;56303;52.160;-0.428;2022-08-21T05:03:16;16.90;99.90
20744;DHT22;56303;52.160;-0.428;2022-08-21T05:05:43;17.00;99.90
20744;DHT22;56303;52.160;-0.428;2022-08-21T05:08:14;17.10;99.90
20744;DHT22;56303;52.160;-0.428;2022-08-21T05:10:42;17.20;99.90
20744;DHT22;56303;52.160;-0.428;2022-08-21T05:13:11;17.10;99.90
20744;DHT22;56303;52.160;-0.428;2022-08-21T05:15:40;17.10;99.90
20744;DHT22;56303;52.160;-0.428;2022-08-21T05:18:06;17.00;99.90
20744;DHT22;56303;52.160;-0.428;2022-08-21T05:20:35;17.20;99.90
20744;DHT22;56303;52.160;-0.428;2022-08-21T05:23:09;17.20;99.90
20744;DHT22;56303;52.160;-0.428;2022-08-21T05:25:36;17.30;99.90
20744;DHT22;56303;52.160;-0.428;2022-08-21T05:28:04;17.40;99.90
20744;DHT22;56303;52.160;-0.428;2022-08-21T05:30:33;17.50;99.90
20744;DHT22;56303;52.160;-0.428;2022-08-21T05:33:01;17.40;99.90
20744;DHT22;56303;52.160;-0.428;2022-08-21T05:35:29;17.30;99.90
20744;DHT22;56303;52.160;-0.428;2022-08-21T05:37:56;17.30;99.90
20744;DHT22;56303;52.160;-0.428;2022-08-21T05:40:24;17.40;99.90
20744;DHT22;56303;52.160;-0.428;2022-08-21T05:42:52;17.30;99.90
20744;DHT22;56303;52.160;-0.428;2022-08-21T05:45:26;17.30;99.90
20744;DHT22;56303;52.160;-0.428;2022-08-21T05:48:20;17.40;99.90
20744;DHT22;56303;52.160;-0.428;2022-08-21T05:50:49;16.90;99.90
20744;DHT22;56303;52.160;-0.428;2022-08-21T05:53:18;17.10;99.90
20744;DHT22;56303;52.160;-0.428;2022-08-21T05:55:45;17.30;99.90
20744;DHT22;56303;52.160;-0.428;2022-08-21T05:58:18;17.40;99.90
20744;DHT22;56303;52.160;-0.428;2022-08-21T06:00:47;17.40;99.90
20744;DHT22;56303;52.160;-0.428;2022-08-21T06:03:18;17.30;99.90
20744;DHT22;56303;52.160;-0.428;2022-08-21T06:05:46;17.40;99.90
20744;DHT22;56303;52.160;-0.428;2022-08-21T06:08:15;17.30;99.90
20744;DHT22;56303;52.160;-0.428;2022-08-21T06:10:43;17.30;99.90
20744;DHT22;56303;52.160;-0.428;2022-08-21T06:13:10;17.20;99.90
20744;DHT22;56303;52.160;-0.428;2022-08-21T06:15:38;17.30;99.90
20744;DHT22;56303;52.160;-0.428;2022-08-21T06:18:05;17.30;99.90
20744;DHT22;56303;52.160;-0.428;2022-08-21T06:20:32;17.40;99.90
20744;DHT22;56303;52.160;-0.428;2022-08-21T06:23:01;17.50;99.90
20744;DHT22;56303;52.160;-0.428;2022-08-21T06:25:28;17.70;99.90
20744;DHT22;56303;52.160;-0.428;2022-08-21T06:28:08;17.60;99.90
20744;DHT22;56303;52.160;-0.428;2022-08-21T06:30:37;17.50;99.90
20744;DHT22;56303;52.160;-0.428;2022-08-21T06:33:05;17.50;99.90
20744;DHT22;56303;52.160;-0.428;2022-08-21T06:35:34;17.30;99.90
20744;DHT22;56303;52.160;-0.428;2022-08-21T06:38:01;17.30;99.90
20744;DHT22;56303;52.160;-0.428;2022-08-21T06:40:29;17.30;99.90
20744;DHT22;56303;52.160;-0.428;2022-08-21T06:43:09;17.50;99.90
20744;DHT22;56303;52.160;-0.428;2022-08-21T06:45:41;17.60;99.90
20744;DHT22;56303;52.160;-0.428;2022-08-21T06:48:08;17.80;99.90
20744;DHT22;56303;52.160;-0.428;2022-08-21T06:50:35;17.90;99.90
20744;DHT22;56303;52.160;-0.428;2022-08-21T06:53:05;17.60;99.90
20744;DHT22;56303;52.160;-0.428;2022-08-21T06:55:33;17.70;99.90
20744;DHT22;56303;52.160;-0.428;2022-08-21T06:58:00;17.80;99.90
20744;DHT22;56303;52.160;-0.428;2022-08-21T07:00:27;17.90;99.90
20744;DHT22;56303;52.160;-0.428;2022-08-21T07:02:54;18.00;99.90
20744;DHT22;56303;52.160;-0.428;2022-08-21T07:05:22;18.10;99.90
20744;DHT22;56303;52.160;-0.428;2022-08-21T07:07:51;18.10;99.90
20744;DHT22;56303;52.160;-0.428;2022-08-21T07:10:18;18.20;99.90
20744;DHT22;56303;52.160;-0.428;2022-08-21T07:12:49;18.20;99.90
20744;DHT22;56303;52.160;-0.428;2022-08-21T07:15:28;18.20;99.90
20744;DHT22;56303;52.160;-0.428;2022-08-21T07:17:56;18.10;99.90
20744;DHT22;56303;52.160;-0.428;2022-08-21T07:20:23;18.20;99.90
20744;DHT22;56303;52.160;-0.428;2022-08-21T07:22:50;17.90;99.90
20744;DHT22;56303;52.160;-0.428;2022-08-21T07:25:17;18.00;99.90
20744;DHT22;56303;52.160;-0.428;2022-08-21T07:27:44;18.10;99.90
20744;DHT22;56303;52.160;-0.428;2022-08-21T07:30:11;18.40;99.90
20744;DHT22;56303;52.160;-0.428;2022-08-21T07:32:38;18.40;99.90
20744;DHT22;56303;52.160;-0.428;2022-08-21T07:35:06;18.30;99.90
20744;DHT22;56303;52.160;-0.428;2022-08-21T07:37:33;18.50;99.90
20744;DHT22;56303;52.160;-0.428;2022-08-21T07:40:00;18.60;99.90
20744;DHT22;56303;52.160;-0.428;2022-08-21T07:42:27;18.60;99.90
20744;DHT22;56303;52.160;-0.428;2022-08-21T07:44:55;18.80;99.90
20744;DHT22;56303;52.160;-0.428;2022-08-21T07:47:22;18.70;99.90
20744;DHT22;56303;52.160;-0.428;2022-08-21T07:50:09;18.80;99.90
20744;DHT22;56303;52.160;-0.428;2022-08-21T07:52:38;19.00;99.90
20744;DHT22;56303;52.160;-0.428;2022-08-21T07:55:06;19.00;99.90
20744;DHT22;56303;52.160;-0.428;2022-08-21T07:57:33;19.00;99.90
20744;DHT22;56303;52.160;-0.428;2022-08-21T08:00:01;19.10;99.90
20744;DHT22;56303;52.160;-0.428;2022-08-21T08:02:30;19.00;99.90
20744;DHT22;56303;52.160;-0.428;2022-08-21T08:05:01;19.10;99.90
20744;DHT22;56303;52.160;-0.428;2022-08-21T08:07:28;19.20;99.90
20744;DHT22;56303;52.160;-0.428;2022-08-21T08:09:55;19.40;99.90
20744;DHT22;56303;52.160;-0.428;2022-08-21T08:12:22;19.60;99.90
20744;DHT22;56303;52.160;-0.428;2022-08-21T08:14:48;19.70;99.90
20744;DHT22;56303;52.160;-0.428;2022-08-21T08:17:15;19.60;99.90
20744;DHT22;56303;52.160;-0.428;2022-08-21T08:19:42;19.60;99.90
20744;DHT22;56303;52.160;-0.428;2022-08-21T08:22:17;19.60;99.90
20744;DHT22;56303;52.160;-0.428;2022-08-21T08:24:46;19.70;99.90
20744;DHT22;56303;52.160;-0.428;2022-08-21T08:27:15;19.90;99.90
20744;DHT22;56303;52.160;-0.428;2022-08-21T08:29:43;20.10;99.90
20744;DHT22;56303;52.160;-0.428;2022-08-21T08:32:11;20.00;99.90
20744;DHT22;56303;52.160;-0.428;2022-08-21T08:34:38;20.10;99.90
20744;DHT22;56303;52.160;-0.428;2022-08-21T08:37:07;20.20;99.90
20744;DHT22;56303;52.160;-0.428;2022-08-21T08:39:35;20.40;99.90
20744;DHT22;56303;52.160;-0.428;2022-08-21T08:42:16;20.40;99.90
20744;DHT22;56303;52.160;-0.428;2022-08-21T08:45:07;20.60;99.90
20744;DHT22;56303;52.160;-0.428;2022-08-21T08:47:37;20.90;99.90
20744;DHT22;56303;52.160;-0.428;2022-08-21T08:50:12;21.00;99.90
20744;DHT22;56303;52.160;-0.428;2022-08-21T08:52:52;20.80;99.90
20744;DHT22;56303;52.160;-0.428;2022-08-21T08:55:25;20.90;99.90
20744;DHT22;56303;52.160;-0.428;2022-08-21T08:57:53;20.90;99.90
20744;DHT22;56303;52.160;-0.428;2022-08-21T09:00:22;21.10;99.90
20744;DHT22;56303;52.160;-0.428;2022-08-21T09:02:55;21.30;99.90
20744;DHT22;56303;52.160;-0.428;2022-08-21T09:05:28;21.20;99.90
20744;DHT22;56303;52.160;-0.428;2022-08-21T09:08:20;21.20;99.90
20744;DHT22;56303;52.160;-0.428;2022-08-21T09:11:03;21.20;99.90
20744;DHT22;56303;52.160;-0.428;2022-08-21T09:24:31;22.00;99.90
20744;DHT22;56303;52.160;-0.428;2022-08-21T09:27:09;22.10;99.90
20744;DHT22;56303;52.160;-0.428;2022-08-21T09:29:39;21.80;99.90
20744;DHT22;56303;52.160;-0.428;2022-08-21T09:32:27;21.90;99.90
20744;DHT22;56303;52.160;-0.428;2022-08-21T09:35:08;21.90;99.90
20744;DHT22;56303;52.160;-0.428;2022-08-21T09:45:39;21.90;99.90
20744;DHT22;56303;52.160;-0.428;2022-08-21T09:48:13;21.80;99.90
20744;DHT22;56303;52.160;-0.428;2022-08-21T09:50:41;22.00;99.90
20744;DHT22;56303;52.160;-0.428;2022-08-21T09:53:22;22.20;99.90
20744;DHT22;56303;52.160;-0.428;2022-08-21T09:55:56;22.50;99.90
20744;DHT22;56303;52.160;-0.428;2022-08-21T09:58:44;22.60;99.90
20744;DHT22;56303;52.160;-0.428;2022-08-21T10:01:18;22.30;99.90
20744;DHT22;56303;52.160;-0.428;2022-08-21T10:03:48;22.20;99.90
20744;DHT22;56303;52.160;-0.428;2022-08-21T10:06:25;21.90;99.90
20744;DHT22;56303;52.160;-0.428;2022-08-21T10:09:12;21.80;99.90
20744;DHT22;56303;52.160;-0.428;2022-08-21T10:12:06;22.00;99.90
20744;DHT22;56303;52.160;-0.428;2022-08-21T10:20:17;22.10;99.90
20744;DHT22;56303;52.160;-0.428;2022-08-21T10:23:18;22.40;99.90
20744;DHT22;56303;52.160;-0.428;2022-08-21T10:29:06;22.40;99.90
20744;DHT22;56303;52.160;-0.428;2022-08-21T10:31:47;22.30;99.90
20744;DHT22;56303;52.160;-0.428;2022-08-21T10:34:45;22.60;99.90
20744;DHT22;56303;52.160;-0.428;2022-08-21T10:48:20;23.10;99.90
20744;DHT22;56303;52.160;-0.428;2022-08-21T10:50:54;23.10;99.90
20744;DHT22;56303;52.160;-0.428;2022-08-21T11:01:40;23.60;99.90
20744;DHT22;56303;52.160;-0.428;2022-08-21T11:04:18;23.90;99.90
20744;DHT22;56303;52.160;-0.428;2022-08-21T11:06:50;23.90;99.90
20744;DHT22;56303;52.160;-0.428;2022-08-21T11:09:22;23.80;99.90
20744;DHT22;56303;52.160;-0.428;2022-08-21T11:12:05;23.70;99.90
20744;DHT22;56303;52.160;-0.428;2022-08-21T11:21:24;23.30;99.90
20744;DHT22;56303;52.160;-0.428;2022-08-21T11:26:43;23.50;99.90
20744;DHT22;56303;52.160;-0.428;2022-08-21T11:29:25;23.60;99.90
20744;DHT22;56303;52.160;-0.428;2022-08-21T11:52:27;23.30;99.90
20744;DHT22;56303;52.160;-0.428;2022-08-21T11:55:16;23.50;99.90
20744;DHT22;56303;52.160;-0.428;2022-08-21T12:00:42;24.00;99.90
20744;DHT22;56303;52.160;-0.428;2022-08-21T12:06:15;24.20;99.90
20744;DHT22;56303;52.160;-0.428;2022-08-21T12:09:03;24.50;99.90
20744;DHT22;56303;52.160;-0.428;2022-08-21T12:11:30;24.50;99.90
20744;DHT22;56303;52.160;-0.428;2022-08-21T12:13:59;24.90;99.90
20744;DHT22;56303;52.160;-0.428;2022-08-21T12:16:44;25.00;99.90
20744;DHT22;56303;52.160;-0.428;2022-08-21T12:19:28;25.30;99.90
20744;DHT22;56303;52.160;-0.428;2022-08-21T12:22:10;25.90;99.90
20744;DHT22;56303;52.160;-0.428;2022-08-21T12:24:45;25.70;99.90
20744;DHT22;56303;52.160;-0.428;2022-08-21T12:29:58;26.30;99.90
20744;DHT22;56303;52.160;-0.428;2022-08-21T12:33:18;26.10;99.90
20744;DHT22;56303;52.160;-0.428;2022-08-21T12:35:21;26.20;99.90
20744;DHT22;56303;52.160;-0.428;2022-08-21T12:38:06;25.90;99.90
20744;DHT22;56303;52.160;-0.428;2022-08-21T12:41:00;25.60;99.90
20744;DHT22;56303;52.160;-0.428;2022-08-21T12:43:41;25.90;99.90
20744;DHT22;56303;52.160;-0.428;2022-08-21T12:46:25;26.20;99.90
20744;DHT22;56303;52.160;-0.428;2022-08-21T12:49:00;26.60;99.90
20744;DHT22;56303;52.160;-0.428;2022-08-21T12:54:04;26.30;99.90
20744;DHT22;56303;52.160;-0.428;2022-08-21T12:56:33;25.90;99.90
20744;DHT22;56303;52.160;-0.428;2022-08-21T12:59:05;25.70;99.90
20744;DHT22;56303;52.160;-0.428;2022-08-21T13:01:48;25.60;99.90
20744;DHT22;56303;52.160;-0.428;2022-08-21T13:04:19;25.70;99.90
20744;DHT22;56303;52.160;-0.428;2022-08-21T13:06:50;25.40;99.90
20744;DHT22;56303;52.160;-0.428;2022-08-21T13:09:20;25.20;99.90
20744;DHT22;56303;52.160;-0.428;2022-08-21T13:11:49;25.90;99.90
20744;DHT22;56303;52.160;-0.428;2022-08-21T13:16:54;27.50;97.00
20744;DHT22;56303;52.160;-0.428;2022-08-21T13:19:22;27.30;97.00
20744;DHT22;56303;52.160;-0.428;2022-08-21T13:21:50;26.90;98.00
20744;DHT22;56303;52.160;-0.428;2022-08-21T13:24:28;26.60;98.10
20744;DHT22;56303;52.160;-0.428;2022-08-21T13:30:05;27.40;97.80
20744;DHT22;56303;52.160;-0.428;2022-08-21T13:32:35;28.00;97.40
20744;DHT22;56303;52.160;-0.428;2022-08-21T13:35:13;29.10;95.30
20744;DHT22;56303;52.160;-0.428;2022-08-21T13:37:42;29.80;94.90
20744;DHT22;56303;52.160;-0.428;2022-08-21T13:40:12;30.20;92.80
20744;DHT22;56303;52.160;-0.428;2022-08-21T13:42:43;29.90;92.50
20744;DHT22;56303;52.160;-0.428;2022-08-21T13:45:17;28.80;94.10
20744;DHT22;56303;52.160;-0.428;2022-08-21T13:47:46;28.20;94.60
20744;DHT22;56303;52.160;-0.428;2022-08-21T13:50:15;26.90;95.80
20744;DHT22;56303;52.160;-0.428;2022-08-21T13:55:48;26.50;96.70
20744;DHT22;56303;52.160;-0.428;2022-08-21T13:58:25;26.90;97.10
20744;DHT22;56303;52.160;-0.428;2022-08-21T14:00:53;27.30;96.50
20744;DHT22;56303;52.160;-0.428;2022-08-21T14:03:32;27.20;97.20
20744;DHT22;56303;52.160;-0.428;2022-08-21T14:06:00;26.40;97.10
20744;DHT22;56303;52.160;-0.428;2022-08-21T14:08:29;26.90;98.20
20744;DHT22;56303;52.160;-0.428;2022-08-21T14:10:58;27.70;97.00
20744;DHT22;56303;52.160;-0.428;2022-08-21T14:13:35;28.50;96.30
20744;DHT22;56303;52.160;-0.428;2022-08-21T14:16:15;28.40;96.10
20744;DHT22;56303;52.160;-0.428;2022-08-21T14:19:09;28.80;95.50
20744;DHT22;56303;52.160;-0.428;2022-08-21T14:21:40;29.40;94.80
20744;DHT22;56303;52.160;-0.428;2022-08-21T14:24:12;30.00;93.20
20744;DHT22;56303;52.160;-0.428;2022-08-21T14:26:50;28.80;94.10
20744;DHT22;56303;52.160;-0.428;2022-08-21T14:29:21;28.00;94.70
20744;DHT22;56303;52.160;-0.428;2022-08-21T14:31:51;28.00;95.30
20744;DHT22;56303;52.160;-0.428;2022-08-21T14:34:18;27.80;95.30
20744;DHT22;56303;52.160;-0.428;2022-08-21T14:36:46;27.70;95.90
20744;DHT22;56303;52.160;-0.428;2022-08-21T14:39:13;27.30;96.40
20744;DHT22;56303;52.160;-0.428;2022-08-21T14:41:40;26.90;97.00
20744;DHT22;56303;52.160;-0.428;2022-08-21T14:44:09;26.70;96.80
20744;DHT22;56303;52.160;-0.428;2022-08-21T14:46:37;26.80;97.10
20744;DHT22;56303;52.160;-0.428;2022-08-21T14:49:25;27.00;97.30
20744;DHT22;56303;52.160;-0.428;2022-08-21T14:51:54;28.10;96.00
20744;DHT22;56303;52.160;-0.428;2022-08-21T14:54:27;28.80;95.30
20744;DHT22;56303;52.160;-0.428;2022-08-21T14:57:06;29.00;94.90
20744;DHT22;56303;52.160;-0.428;2022-08-21T14:59:35;28.10;95.20
20744;DHT22;56303;52.160;-0.428;2022-08-21T15:02:03;27.60;96.10
20744;DHT22;56303;52.160;-0.428;2022-08-21T15:04:31;27.30;95.90
20744;DHT22;56303;52.160;-0.428;2022-08-21T15:06:58;27.60;96.30
20744;DHT22;56303;52.160;-0.428;2022-08-21T15:09:25;27.90;95.50
20744;DHT22;56303;52.160;-0.428;2022-08-21T15:11:56;28.00;95.10
20744;DHT22;56303;52.160;-0.428;2022-08-21T15:14:26;27.80;95.30
20744;DHT22;56303;52.160;-0.428;2022-08-21T15:16:54;27.90;95.50
20744;DHT22;56303;52.160;-0.428;2022-08-21T15:19:21;27.60;96.10
20744;DHT22;56303;52.160;-0.428;2022-08-21T15:21:48;27.70;96.20
20744;DHT22;56303;52.160;-0.428;2022-08-21T15:24:15;28.20;95.70
20744;DHT22;56303;52.160;-0.428;2022-08-21T15:26:43;28.60;95.60
20744;DHT22;56303;52.160;-0.428;2022-08-21T15:29:10;29.40;94.50
20744;DHT22;56303;52.160;-0.428;2022-08-21T15:31:53;29.40;94.60
20744;DHT22;56303;52.160;-0.428;2022-08-21T15:34:20;29.00;94.40
20744;DHT22;56303;52.160;-0.428;2022-08-21T15:36:53;28.50;94.80
20744;DHT22;56303;52.160;-0.428;2022-08-21T15:39:24;28.20;95.60
20744;DHT22;56303;52.160;-0.428;2022-08-21T15:41:57;27.50;96.50
20744;DHT22;56303;52.160;-0.428;2022-08-21T15:44:25;26.70;97.20
20744;DHT22;56303;52.160;-0.428;2022-08-21T15:46:54;27.00;97.60
20744;DHT22;56303;52.160;-0.428;2022-08-21T15:49:22;28.00;95.40
20744;DHT22;56303;52.160;-0.428;2022-08-21T15:51:49;29.10;94.70
20744;DHT22;56303;52.160;-0.428;2022-08-21T15:54:16;29.80;93.10
20744;DHT22;56303;52.160;-0.428;2022-08-21T15:56:46;30.50;92.50
20744;DHT22;56303;52.160;-0.428;2022-08-21T15:59:18;31.10;91.80
20744;DHT22;56303;52.160;-0.428;2022-08-21T16:01:45;30.60;92.40
20744;DHT22;56303;52.160;-0.428;2022-08-21T16:04:22;31.20;91.40
20744;DHT22;56303;52.160;-0.428;2022-08-21T16:06:50;30.40;91.50
20744;DHT22;56303;52.160;-0.428;2022-08-21T16:09:23;30.30;91.70
20744;DHT22;56303;52.160;-0.428;2022-08-21T16:11:51;31.10;91.20
20744;DHT22;56303;52.160;-0.428;2022-08-21T16:14:19;30.70;91.10
20744;DHT22;56303;52.160;-0.428;2022-08-21T16:16:45;30.40;91.80
20744;DHT22;56303;52.160;-0.428;2022-08-21T16:19:13;29.20;92.40
20744;DHT22;56303;52.160;-0.428;2022-08-21T16:21:40;28.70;93.10
20744;DHT22;56303;52.160;-0.428;2022-08-21T16:24:07;28.00;93.80
20744;DHT22;56303;52.160;-0.428;2022-08-21T16:26:34;27.50;95.10
20744;DHT22;56303;52.160;-0.428;2022-08-21T16:29:03;28.30;95.40
20744;DHT22;56303;52.160;-0.428;2022-08-21T16:31:31;28.90;93.70
20744;DHT22;56303;52.160;-0.428;2022-08-21T16:33:59;29.10;93.60
20744;DHT22;56303;52.160;-0.428;2022-08-21T16:36:26;30.00;92.90
20744;DHT22;56303;52.160;-0.428;2022-08-21T16:38:57;30.60;92.10
20744;DHT22;56303;52.160;-0.428;2022-08-21T16:41:27;31.50;90.50
20744;DHT22;56303;52.160;-0.428;2022-08-21T16:43:56;30.90;89.80
20744;DHT22;56303;52.160;-0.428;2022-08-21T16:46:22;30.20;90.60
20744;DHT22;56303;52.160;-0.428;2022-08-21T16:48:50;29.60;91.50
20744;DHT22;56303;52.160;-0.428;2022-08-21T16:51:17;29.90;90.50
20744;DHT22;56303;52.160;-0.428;2022-08-21T16:53:44;29.80;91.20
20744;DHT22;56303;52.160;-0.428;2022-08-21T16:56:13;30.50;90.90
20744;DHT22;56303;52.160;-0.428;2022-08-21T16:58:44;30.00;90.40
20744;DHT22;56303;52.160;-0.428;2022-08-21T17:01:15;29.00;91.40
20744;DHT22;56303;52.160;-0.428;2022-08-21T17:03:45;29.20;91.50
20744;DHT22;56303;52.160;-0.428;2022-08-21T17:06:14;29.20;91.60
20744;DHT22;56303;52.160;-0.428;2022-08-21T17:08:42;29.00;91.50
20744;DHT22;56303;52.160;-0.428;2022-08-21T17:11:32;28.80;92.10
20744;DHT22;56303;52.160;-0.428;2022-08-21T17:14:20;28.10;92.80
20744;DHT22;56303;52.160;-0.428;2022-08-21T17:16:52;28.40;92.90
20744;DHT22;56303;52.160;-0.428;2022-08-21T17:19:20;28.80;92.00